Huvudsida
METAR-TAF:

METAR-TAF

Flygplatser :

Staunings flygplats

Ringkøbing-Skjern, Danmark

latitud: 56-00N, longitud: 008-21E, höjd: 5 m

Aktuellt väderrapport

Denna rapport gjordes för 9 timmar och 34 minuter sedan, klockan 13:50 UTC
Vind 12 kt från syd/sydväst
Temperatur 7°C
Fuktighet 100%
Tryck 1028 hPa
Sikt: 4000 m
Brutna moln på en höjd av 300 ft
lätt regn, duggregn, fuktdis

METAR: EKVJ 221350Z 20012KT 4000 -RADZ BR BKN003 07/07 Q1028

Tid: 00:24 (23:24 UTC)

Väderprognos

Denna rapport gjordes för 11 timmar och 23 minuter sedan, klockan 12:01 UTC
Prognos gäller från 22 kl. 12 UTC till 22 kl. 16 UTC
Vind 12 kt från syd/sydväst
Sikt: 9000 m
Brutna moln på en höjd av 300 ft
Temporärt
från 22 kl. 12 UTC till 22 kl. 16 UTC
Sikt: 1500 m
Brutna moln på en höjd av 1200 ft
fuktdis

TAF: EKVJ 221201Z 2212/2216 20012KT 9000 BKN003 TEMPO 2212/2216 1500 BR BKN012

Aktuella väderrapporter och prognoser från 4000 flygplatser (METAR- och TAF-rapporter).

De tillgängliga stationerna syns som gula och röda prickar på kartan.

För musen över prickarna för att se namnen på stationerna.

Klicka sedan för att få väderrapporter och prognoser.

För att ändra kartan: Klicka på de gröna knapparna med ett svart kors på för att zooma in; den gröna knappen med ett streck på för att zooma ut; eller på de gröna pilarna för angränsande kartor.


METAR-TAF: